Terminal Aerodrome Forecast
Issued by NWS

Home | Current Version | Previous Version | Text Only | Print | Product List | Glossary Off
Versions: 1 2 3 4 5 6 7 8 9 10 11 12 13 14 15 16 17 18 19 20

000
FTUS43 KGRB 261130
TAFATW
TAF
KATW 261130Z 2612/2712 03015KT P6SM OVC005
     FM261500 03015G25KT P6SM OVC009
     FM262000 04014G23KT P6SM OVC018
     FM262200 04012G18KT P6SM BKN022 BKN070
     FM270000 04010KT P6SM SCT070
     FM270800 03007KT P6SM SKC=

USA.gov is the U.S. government's official web portal to all federal, state and local government web resources and services.